TimeEST,TemperatureF,Dew PointF,Humidity,Sea Level PressureIn,VisibilityMPH,Wind Direction,Wind SpeedMPH,Gust SpeedMPH,PrecipitationIn,Events,Conditions,WindDirDegrees,DateUTC
12:15 AM,32.0,27.5,83,29.71,2.0,South,4.6,-,N/A,Snow,Light Snow,180,2013-01-20 05:15:00
12:35 AM,31.8,28.2,87,29.69,1.5,SSE,3.5,-,N/A,Snow,Light Snow,160,2013-01-20 05:35:00
12:55 AM,31.8,28.6,88,29.66,5.0,SSE,5.8,-,N/A,Snow,Light Snow,150,2013-01-20 05:55:00
1:15 AM,32.0,28.2,86,29.65,10.0,WSW,6.9,-,N/A,,Overcast,240,2013-01-20 06:15:00
1:35 AM,31.3,27.9,87,29.65,10.0,SSW,8.1,-,N/A,,Overcast,200,2013-01-20 06:35:00
1:55 AM,33.4,24.8,71,29.64,10.0,SSE,10.4,-,N/A,Snow,Light Snow,160,2013-01-20 06:55:00
2:15 AM,33.8,24.8,70,29.63,7.0,SSE,11.5,19.6,N/A,Snow,Light Snow,160,2013-01-20 07:15:00
2:35 AM,33.6,23.9,68,29.61,10.0,South,6.9,-,N/A,,Overcast,190,2013-01-20 07:35:00
2:55 AM,33.3,23.5,68,29.61,10.0,SSW,6.9,-,N/A,,Scattered Clouds,200,2013-01-20 07:55:00
3:15 AM,32.2,22.8,68,29.60,10.0,SW,3.5,-,N/A,,Clear,230,2013-01-20 08:15:00
3:35 AM,32.5,22.6,67,29.58,10.0,SSW,3.5,-,N/A,,Mostly Cloudy,200,2013-01-20 08:35:00
3:55 AM,32.7,22.3,65,29.56,10.0,SSE,6.9,-,N/A,,Scattered Clouds,160,2013-01-20 08:55:00
4:15 AM,33.6,22.5,64,29.53,10.0,SSE,12.7,-,N/A,,Scattered Clouds,160,2013-01-20 09:15:00
4:35 AM,34.7,22.8,62,29.51,10.0,South,10.4,20.7,N/A,,Mostly Cloudy,180,2013-01-20 09:35:00
4:55 AM,33.8,22.6,64,29.49,10.0,South,11.5,17.3,N/A,,Scattered Clouds,170,2013-01-20 09:55:00
5:15 AM,33.8,23.0,65,29.47,10.0,South,9.2,18.4,N/A,,Mostly Cloudy,190,2013-01-20 10:15:00
5:35 AM,34.0,22.3,62,29.44,10.0,South,10.4,-,N/A,,Scattered Clouds,170,2013-01-20 10:35:00
5:55 AM,33.8,22.1,62,29.43,10.0,SSE,13.8,18.4,N/A,,Clear,160,2013-01-20 10:55:00
6:15 AM,33.8,22.3,63,29.42,10.0,South,12.7,-,N/A,,Mostly Cloudy,170,2013-01-20 11:15:00
6:35 AM,33.4,22.1,63,29.42,10.0,South,5.8,-,N/A,,Mostly Cloudy,180,2013-01-20 11:35:00
6:55 AM,33.1,22.1,64,29.40,10.0,SSE,9.2,-,N/A,,Mostly Cloudy,160,2013-01-20 11:55:00
7:15 AM,32.9,22.8,66,29.39,10.0,South,5.8,-,N/A,,Overcast,170,2013-01-20 12:15:00
7:35 AM,32.7,22.5,66,29.38,10.0,South,8.1,-,N/A,,Mostly Cloudy,170,2013-01-20 12:35:00
7:55 AM,32.9,22.5,65,29.37,10.0,South,6.9,-,N/A,,Mostly Cloudy,180,2013-01-20 12:55:00
8:15 AM,32.9,22.1,65,29.36,10.0,South,5.8,-,N/A,,Scattered Clouds,170,2013-01-20 13:15:00
8:35 AM,34.0,22.8,64,29.35,10.0,South,6.9,-,N/A,,Scattered Clouds,190,2013-01-20 13:35:00
8:55 AM,34.0,23.4,65,29.35,10.0,SSW,8.1,-,N/A,,Mostly Cloudy,200,2013-01-20 13:55:00
9:15 AM,35.1,24.4,65,29.35,10.0,SSW,8.1,-,N/A,,Overcast,210,2013-01-20 14:15:00
9:35 AM,35.4,29.7,80,29.41,1.5,WSW,32.2,44.9,N/A,Snow,Light Snow,240,2013-01-20 14:35:00
9:55 AM,34.0,30.0,85,29.42,2.0,WSW,25.3,38.0,N/A,Snow,Light Snow,240,2013-01-20 14:55:00
10:15 AM,34.7,27.3,74,29.42,10.0,WSW,27.6,36.8,N/A,Snow,Light Snow,240,2013-01-20 15:15:00
10:35 AM,35.2,25.2,67,29.42,10.0,WSW,26.5,40.3,N/A,,Overcast,240,2013-01-20 15:35:00
10:55 AM,35.6,23.4,61,29.42,10.0,WSW,31.1,48.3,N/A,,Overcast,240,2013-01-20 15:55:00
11:15 AM,36.0,23.5,61,29.41,10.0,SW,28.8,36.8,N/A,,Mostly Cloudy,230,2013-01-20 16:15:00
11:35 AM,35.6,22.6,59,29.39,10.0,WSW,21.9,34.5,N/A,,Scattered Clouds,240,2013-01-20 16:35:00
11:55 AM,36.1,22.5,58,29.40,10.0,SW,21.9,38.0,N/A,,Scattered Clouds,230,2013-01-20 16:55:00
12:15 PM,34.7,19.9,55,29.41,10.0,WSW,31.1,44.9,N/A,,Scattered Clouds,240,2013-01-20 17:15:00
12:35 PM,35.4,16.5,46,29.42,10.0,SW,26.5,41.4,N/A,,Scattered Clouds,230,2013-01-20 17:35:00
12:55 PM,35.8,15.6,44,29.43,10.0,WSW,21.9,39.1,N/A,,Mostly Cloudy,240,2013-01-20 17:55:00
1:15 PM,33.4,17.8,53,29.45,3.0,WSW,23.0,39.1,N/A,Snow,Light Snow,240,2013-01-20 18:15:00
1:35 PM,32.2,18.9,58,29.48,3.0,West,24.2,38.0,N/A,Snow,Light Snow,260,2013-01-20 18:35:00
1:55 PM,29.3,22.1,75,29.48,0.2,WSW,20.7,43.7,N/A,Snow,Light Snow,250,2013-01-20 18:55:00
2:15 PM,32.0,13.6,47,29.49,10.0,WSW,24.2,41.4,N/A,,Scattered Clouds,250,2013-01-20 19:15:00
2:55 PM,31.6,13.6,47,29.52,7.0,WSW,29.9,41.4,N/A,,Overcast,240,2013-01-20 19:55:00
3:15 PM,30.7,12.9,48,29.53,10.0,WSW,28.8,40.3,N/A,,Overcast,240,2013-01-20 20:15:00
3:35 PM,29.3,12.9,51,29.55,10.0,WSW,33.4,46.0,N/A,,Overcast,240,2013-01-20 20:35:00
3:55 PM,29.3,11.3,47,29.57,10.0,WSW,24.2,40.3,N/A,,Overcast,240,2013-01-20 20:55:00
4:15 PM,28.4,13.5,54,29.59,4.0,WSW,24.2,35.7,N/A,,Haze,250,2013-01-20 21:15:00
4:35 PM,27.0,16.0,63,29.61,2.5,WSW,13.8,23.0,N/A,Snow,Light Snow,250,2013-01-20 21:35:00
4:55 PM,25.2,17.8,74,29.64,1.2,West,18.4,25.3,N/A,Snow,Light Snow,260,2013-01-20 21:55:00
5:15 PM,23.5,15.3,71,29.66,2.0,West,19.6,31.1,N/A,Snow,Light Snow,280,2013-01-20 22:15:00
5:35 PM,21.6,13.3,70,29.68,2.0,West,13.8,28.8,N/A,Snow,Light Snow,280,2013-01-20 22:35:00
5:55 PM,20.3,11.7,69,29.70,2.0,West,13.8,27.6,N/A,Snow,Light Snow,280,2013-01-20 22:55:00
6:15 PM,19.9,7.7,59,29.72,10.0,West,12.7,17.3,N/A,,Mostly Cloudy,280,2013-01-20 23:15:00
6:35 PM,19.2,5.9,56,29.74,10.0,West,8.1,17.3,N/A,,Scattered Clouds,270,2013-01-20 23:35:00
6:55 PM,18.0,4.8,57,29.75,10.0,West,16.1,-,N/A,,Mostly Cloudy,280,2013-01-20 23:55:00
7:15 PM,17.2,3.9,56,29.77,10.0,West,15.0,24.2,N/A,,Mostly Cloudy,270,2013-01-21 00:15:00
7:35 PM,16.5,3.2,56,29.78,10.0,West,13.8,24.2,N/A,,Mostly Cloudy,280,2013-01-21 00:35:00
7:55 PM,15.6,2.3,56,29.79,10.0,West,13.8,25.3,N/A,,Mostly Cloudy,280,2013-01-21 00:55:00
8:15 PM,14.7,1.2,55,29.80,10.0,West,15.0,23.0,N/A,,Overcast,280,2013-01-21 01:15:00
8:35 PM,13.6,0.1,55,29.81,10.0,West,15.0,21.9,N/A,,Mostly Cloudy,280,2013-01-21 01:35:00
8:55 PM,13.1,-0.4,55,29.82,10.0,West,10.4,23.0,N/A,,Mostly Cloudy,280,2013-01-21 01:55:00
9:15 PM,12.7,-0.4,56,29.83,10.0,West,12.7,21.9,N/A,,Overcast,280,2013-01-21 02:15:00
9:35 PM,12.2,-0.8,56,29.84,10.0,West,15.0,24.2,N/A,,Overcast,280,2013-01-21 02:35:00
9:55 PM,11.8,-0.9,57,29.84,10.0,West,15.0,19.6,N/A,,Overcast,270,2013-01-21 02:55:00
10:15 PM,10.9,0.5,63,29.85,5.0,WNW,11.5,21.9,N/A,,Haze,290,2013-01-21 03:15:00
10:35 PM,10.4,0.5,64,29.86,7.0,West,11.5,19.6,N/A,,Overcast,280,2013-01-21 03:35:00
10:55 PM,9.9,-1.3,61,29.87,10.0,WNW,12.7,21.9,N/A,,Mostly Cloudy,290,2013-01-21 03:55:00
11:15 PM,9.3,-2.2,60,29.87,10.0,West,11.5,23.0,N/A,,Scattered Clouds,280,2013-01-21 04:15:00
11:35 PM,8.2,-2.2,63,29.87,10.0,WNW,11.5,19.6,N/A,,Scattered Clouds,290,2013-01-21 04:35:00
11:55 PM,7.5,-2.4,64,29.88,10.0,West,6.9,-,N/A,,Mostly Cloudy,270,2013-01-21 04:55:00